createdAt,value
2018-03-22T00:02:24.771Z,10.63
2018-03-22T00:04:53.132Z,8.80
2018-03-22T00:07:21.528Z,13.43
2018-03-22T00:09:49.895Z,10.83
2018-03-22T00:12:17.471Z,8.83
2018-03-22T00:14:45.160Z,13.10
2018-03-22T00:17:13.703Z,12.03
2018-03-22T00:19:41.284Z,14.97
2018-03-22T00:22:20.688Z,17.47
2018-03-22T00:24:48.303Z,9.95
2018-03-22T00:27:16.816Z,10.83
2018-03-22T00:29:44.436Z,15.47
2018-03-22T00:32:12.923Z,12.20
2018-03-22T00:34:40.504Z,17.37
2018-03-22T00:37:08.888Z,16.73
2018-03-22T00:39:36.462Z,14.83
2018-03-22T00:42:04.944Z,13.30
2018-03-22T00:44:32.524Z,13.47
2018-03-22T00:47:00.108Z,12.73
2018-03-22T00:49:28.526Z,14.77
2018-03-22T00:51:56.973Z,10.80
2018-03-22T00:54:24.659Z,16.20
2018-03-22T00:56:52.315Z,16.90
2018-03-22T00:59:19.891Z,16.37
2018-03-22T01:01:47.505Z,18.13
2018-03-22T01:04:15.096Z,19.70
2018-03-22T01:06:43.591Z,15.63
2018-03-22T01:09:11.859Z,18.37
2018-03-22T01:11:40.269Z,19.83
2018-03-22T01:14:08.542Z,15.60
2018-03-22T01:16:36.116Z,18.63
2018-03-22T01:19:03.695Z,21.03
2018-03-22T01:21:31.276Z,16.87
2018-03-22T01:23:58.851Z,16.97
2018-03-22T01:26:26.427Z,18.43
2018-03-22T01:28:54.044Z,15.90
2018-03-22T01:31:21.621Z,14.93
2018-03-22T01:33:50.105Z,18.50
2018-03-22T01:36:17.684Z,12.47
2018-03-22T01:38:45.256Z,17.13
2018-03-22T01:41:12.839Z,18.17
2018-03-22T01:43:40.411Z,14.30
2018-03-22T01:46:08.771Z,22.53
2018-03-22T01:48:37.133Z,17.03
2018-03-22T01:51:05.479Z,14.00
2018-03-22T01:53:33.093Z,17.50
2018-03-22T01:56:00.668Z,16.77
2018-03-22T01:58:28.247Z,17.57
2018-03-22T02:00:55.860Z,23.70
2018-03-22T02:03:23.441Z,16.23
2018-03-22T02:05:51.028Z,22.63
2018-03-22T02:08:18.607Z,24.40
2018-03-22T02:10:46.199Z,21.25
2018-03-22T02:13:13.788Z,24.05
2018-03-22T02:15:41.378Z,20.70
2018-03-22T02:18:09.008Z,27.50
2018-03-22T02:20:36.606Z,28.30
2018-03-22T02:23:04.216Z,27.13
2018-03-22T02:25:32.713Z,23.25
2018-03-22T02:28:00.299Z,25.25
2018-03-22T02:30:28.383Z,20.53
2018-03-22T02:32:56.011Z,19.50
2018-03-22T02:35:23.608Z,27.52
2018-03-22T02:37:51.216Z,27.70
2018-03-22T02:40:19.699Z,23.20
2018-03-22T02:42:47.316Z,19.40
2018-03-22T02:45:15.703Z,25.53
2018-03-22T02:47:43.298Z,29.85
2018-03-22T02:50:10.886Z,25.10
2018-03-22T02:52:38.476Z,19.12
2018-03-22T02:55:06.833Z,23.30
2018-03-22T02:57:34.431Z,22.65
2018-03-22T03:00:02.020Z,22.65
2018-03-22T03:02:29.613Z,27.80
2018-03-22T03:04:57.199Z,16.62
2018-03-22T03:07:25.624Z,21.90
2018-03-22T03:09:53.219Z,22.00
2018-03-22T03:12:20.836Z,14.70
2018-03-22T03:14:49.310Z,14.77
2018-03-22T03:17:17.721Z,28.00
2018-03-22T03:19:46.075Z,18.63
2018-03-22T03:22:14.448Z,19.73
2018-03-22T03:24:42.831Z,15.63
2018-03-22T03:27:10.415Z,22.00
2018-03-22T03:29:38.700Z,26.52
2018-03-22T03:32:07.091Z,22.10
2018-03-22T03:34:34.671Z,18.73
2018-03-22T03:37:02.252Z,25.30
2018-03-22T03:39:29.859Z,15.70
2018-03-22T03:41:58.208Z,21.90
2018-03-22T03:44:25.821Z,16.43
2018-03-22T03:46:54.375Z,20.30
2018-03-22T03:49:21.954Z,20.73
2018-03-22T03:51:50.463Z,19.63
2018-03-22T03:54:18.052Z,17.55
2018-03-22T03:56:45.680Z,20.52
2018-03-22T03:59:13.255Z,18.93
2018-03-22T04:01:40.870Z,22.67
2018-03-22T04:04:08.458Z,23.60
2018-03-22T04:06:36.979Z,21.67
2018-03-22T04:09:05.351Z,22.23
2018-03-22T04:11:32.948Z,23.87
2018-03-22T04:14:01.232Z,18.62
2018-03-22T04:16:29.567Z,24.65
2018-03-22T04:18:57.149Z,20.93
2018-03-22T04:21:24.790Z,19.13
2018-03-22T04:23:53.312Z,22.10
2018-03-22T04:26:20.886Z,21.30
2018-03-22T04:28:48.506Z,19.50
2018-03-22T04:31:16.976Z,25.20
2018-03-22T04:33:45.387Z,16.77
2018-03-22T04:36:13.735Z,24.90
2018-03-22T04:38:42.007Z,20.90
2018-03-22T04:41:10.399Z,20.25
2018-03-22T04:43:38.692Z,22.60
2018-03-22T04:46:06.283Z,20.12
2018-03-22T04:48:34.771Z,19.20
2018-03-22T04:51:02.360Z,19.98
2018-03-22T04:53:29.938Z,22.23
2018-03-22T04:55:57.528Z,31.60
2018-03-22T04:58:25.115Z,22.27
2018-03-22T05:00:52.727Z,23.80
2018-03-22T05:03:21.007Z,17.45
2018-03-22T05:05:48.600Z,17.77
2018-03-22T05:08:16.172Z,17.63
2018-03-22T05:10:43.759Z,23.63
2018-03-22T05:13:11.344Z,23.02
2018-03-22T05:15:38.928Z,16.87
2018-03-22T05:18:06.510Z,20.33
2018-03-22T05:20:34.420Z,30.07
2018-03-22T05:23:02.729Z,22.50
2018-03-22T05:25:31.219Z,19.02
2018-03-22T05:27:58.795Z,22.67
2018-03-22T05:30:27.149Z,19.57
2018-03-22T05:32:54.736Z,18.83
2018-03-22T05:35:23.263Z,24.07
2018-03-22T05:37:51.453Z,29.67
2018-03-22T05:40:19.063Z,24.90
2018-03-22T05:42:46.638Z,23.80
2018-03-22T05:45:14.219Z,35.83
2018-03-22T05:47:41.811Z,32.30
2018-03-22T05:50:09.483Z,28.60
2018-03-22T05:52:37.967Z,27.60
2018-03-22T05:55:06.336Z,29.70
2018-03-22T05:57:33.972Z,30.80
2018-03-22T06:00:01.556Z,33.97
2018-03-22T06:02:29.153Z,35.03
2018-03-22T06:04:56.736Z,27.80
2018-03-22T06:07:24.319Z,35.23
2018-03-22T06:09:51.900Z,31.83
2018-03-22T06:12:19.494Z,37.03
2018-03-22T06:14:47.310Z,28.77
2018-03-22T06:17:14.899Z,33.53
2018-03-22T06:19:42.486Z,36.03
2018-03-22T06:22:09.361Z,33.50
2018-03-22T06:24:36.964Z,36.40
2018-03-22T06:27:04.546Z,38.33
2018-03-22T06:29:32.159Z,35.60
2018-03-22T06:31:59.854Z,33.80
2018-03-22T06:34:28.275Z,25.43
2018-03-22T06:36:55.859Z,28.03
2018-03-22T06:39:23.436Z,33.43
2018-03-22T06:41:51.052Z,26.93
2018-03-22T06:44:18.671Z,29.80
2018-03-22T06:46:47.163Z,30.43
2018-03-22T06:49:15.526Z,25.07
2018-03-22T06:51:43.104Z,28.30
2018-03-22T06:54:10.692Z,21.23
2018-03-22T06:56:38.273Z,24.97
2018-03-22T06:59:05.856Z,25.20
2018-03-22T07:01:33.435Z,30.10
2018-03-22T07:04:01.027Z,26.17
2018-03-22T07:06:29.312Z,30.13
2018-03-22T07:08:56.896Z,27.37
2018-03-22T07:11:24.506Z,24.10
2018-03-22T07:13:53.013Z,30.53
2018-03-22T07:16:20.594Z,43.53
2018-03-22T07:18:49.115Z,25.00
2018-03-22T07:21:16.704Z,21.93
2018-03-22T07:23:44.288Z,31.07
2018-03-22T07:26:11.936Z,28.97
2018-03-22T07:28:39.553Z,24.53
2018-03-22T07:31:08.051Z,58.00
2018-03-22T07:33:36.646Z,28.90
2018-03-22T07:36:04.226Z,37.90
2018-03-22T07:38:31.806Z,32.30
2018-03-22T07:40:59.427Z,26.93
2018-03-22T07:43:32.723Z,24.80
2018-03-22T07:46:01.127Z,30.93
2018-03-22T07:48:28.804Z,29.80
2018-03-22T07:50:56.383Z,31.20
2018-03-22T07:53:23.961Z,33.00
2018-03-22T07:55:51.539Z,26.10
2018-03-22T07:58:19.119Z,31.80
2018-03-22T08:00:47.598Z,26.30
2018-03-22T08:03:16.110Z,22.90
2018-03-22T08:05:44.550Z,29.50
2018-03-22T08:08:12.144Z,38.83
2018-03-22T08:10:39.723Z,31.80
2018-03-22T08:13:07.316Z,29.93
2018-03-22T08:15:34.894Z,25.67
2018-03-22T08:18:02.490Z,28.90
2018-03-22T08:20:30.100Z,23.53
2018-03-22T08:22:57.687Z,26.83
2018-03-22T08:25:25.284Z,24.03
2018-03-22T08:27:52.864Z,29.47
2018-03-22T08:30:20.435Z,26.70
2018-03-22T08:32:48.018Z,29.63
2018-03-22T08:35:15.615Z,35.20
2018-03-22T08:37:43.215Z,25.57
2018-03-22T08:40:10.795Z,25.70
2018-03-22T08:42:38.379Z,33.90
2018-03-22T08:45:05.957Z,34.20
2018-03-22T08:47:33.552Z,29.47
2018-03-22T08:50:01.216Z,30.23
2018-03-22T08:52:28.790Z,30.07
2018-03-22T08:54:56.366Z,36.43
2018-03-22T08:57:23.994Z,31.00
2018-03-22T08:59:52.495Z,31.90
2018-03-22T09:02:20.071Z,28.53
2018-03-22T09:04:47.644Z,29.67
2018-03-22T09:07:15.236Z,38.63
2018-03-22T09:09:42.963Z,31.90
2018-03-22T09:12:10.523Z,30.23
2018-03-22T09:14:38.103Z,35.03
2018-03-22T09:17:05.679Z,33.50
2018-03-22T09:19:33.272Z,30.60
2018-03-22T09:22:00.850Z,30.17
2018-03-22T09:24:28.432Z,34.73
2018-03-22T09:27:01.699Z,35.07
2018-03-22T09:29:29.279Z,37.90
2018-03-22T09:31:56.858Z,36.03
2018-03-22T09:34:24.447Z,37.00
2018-03-22T09:36:52.035Z,32.33
2018-03-22T09:39:19.616Z,39.13
2018-03-22T09:41:48.030Z,40.73
2018-03-22T09:44:34.784Z,45.07
2018-03-22T09:47:03.215Z,44.17
2018-03-22T09:49:31.568Z,45.13
2018-03-22T09:51:59.883Z,38.70
2018-03-22T09:54:27.463Z,37.33
2018-03-22T09:56:56.007Z,36.73
2018-03-22T09:59:24.892Z,49.20
2018-03-22T10:01:53.414Z,52.10
2018-03-22T10:04:21.766Z,44.93
2018-03-22T10:06:49.386Z,46.03
2018-03-22T10:09:16.967Z,50.57
2018-03-22T10:11:45.542Z,52.00
2018-03-22T10:14:13.939Z,54.77
2018-03-22T10:16:41.515Z,56.50
2018-03-22T10:19:09.875Z,52.53
2018-03-22T10:21:37.478Z,51.37
2018-03-22T10:24:05.178Z,60.83
2018-03-22T10:26:32.836Z,66.30
2018-03-22T10:29:01.288Z,49.30
2018-03-22T10:31:28.895Z,54.00
2018-03-22T10:33:57.424Z,52.27
2018-03-22T10:36:25.042Z,61.83
2018-03-22T10:38:53.502Z,63.37
2018-03-22T10:41:21.079Z,55.60
2018-03-22T10:43:49.566Z,54.13
2018-03-22T10:46:17.151Z,53.63
2018-03-22T10:48:45.504Z,66.00
2018-03-22T10:51:13.088Z,65.23
2018-03-22T10:53:40.668Z,70.83
2018-03-22T10:56:08.253Z,67.93
2018-03-22T10:58:35.843Z,65.23
2018-03-22T11:01:09.943Z,65.70
2018-03-22T11:03:43.133Z,68.20
2018-03-22T11:06:10.718Z,68.13
2018-03-22T11:08:38.302Z,70.27
2018-03-22T11:11:05.883Z,77.00
2018-03-22T11:13:33.485Z,68.20
2018-03-22T11:16:01.066Z,76.03
2018-03-22T11:18:28.642Z,78.97
2018-03-22T11:20:56.222Z,63.77
2018-03-22T11:23:23.806Z,66.83
2018-03-22T11:25:51.379Z,66.70
2018-03-22T11:28:18.964Z,63.07
2018-03-22T11:30:47.346Z,70.93
2018-03-22T11:33:14.929Z,67.30
2018-03-22T11:35:42.511Z,66.70
2018-03-22T11:38:10.091Z,60.80
2018-03-22T11:40:37.671Z,66.30
2018-03-22T11:43:05.255Z,63.47
2018-03-22T11:45:32.860Z,66.40
2018-03-22T11:48:01.024Z,67.80
2018-03-22T11:50:28.607Z,68.10
2018-03-22T11:52:56.183Z,62.20
2018-03-22T11:55:23.774Z,69.93
2018-03-22T11:57:51.383Z,71.63
2018-03-22T12:00:19.744Z,73.40
2018-03-22T12:02:47.323Z,71.37
2018-03-22T12:05:14.900Z,67.03
2018-03-22T12:07:43.338Z,68.10
2018-03-22T12:10:10.931Z,62.27
2018-03-22T12:12:38.519Z,53.60
2018-03-22T12:15:06.110Z,82.77
2018-03-22T12:17:33.691Z,65.40
2018-03-22T12:20:01.266Z,59.93
2018-03-22T12:22:28.851Z,59.10
2018-03-22T12:24:56.426Z,70.63
2018-03-22T12:27:24.013Z,58.10
2018-03-22T12:29:51.595Z,58.93
2018-03-22T12:32:19.182Z,59.70
2018-03-22T12:34:46.788Z,57.10
2018-03-22T12:37:14.367Z,57.87
2018-03-22T12:39:41.984Z,53.93
2018-03-22T12:42:09.570Z,68.13
2018-03-22T12:44:37.207Z,68.83
2018-03-22T12:47:04.788Z,65.90
2018-03-22T12:49:32.371Z,62.47
2018-03-22T12:51:59.956Z,74.17
2018-03-22T12:54:27.542Z,61.17
2018-03-22T12:56:55.124Z,61.03
2018-03-22T12:59:22.749Z,64.03
2018-03-22T13:01:50.335Z,59.47
2018-03-22T13:04:17.919Z,57.97
2018-03-22T13:06:45.507Z,72.73
2018-03-22T13:09:13.253Z,60.67
2018-03-22T13:11:40.865Z,66.30
2018-03-22T13:14:08.441Z,69.70
2018-03-22T13:16:36.026Z,66.83
2018-03-22T13:19:03.607Z,67.77
2018-03-22T13:21:32.056Z,61.93
2018-03-22T13:23:59.644Z,64.20
2018-03-22T13:26:27.243Z,63.80
2018-03-22T13:28:55.763Z,61.53
2018-03-22T13:31:24.140Z,57.23
2018-03-22T13:33:52.528Z,68.73
2018-03-22T13:36:20.817Z,64.47
2018-03-22T13:38:48.802Z,57.40
2018-03-22T13:41:17.170Z,63.37
2018-03-22T13:43:45.575Z,64.00
2018-03-22T13:46:13.980Z,65.53
2018-03-22T13:48:42.379Z,66.17
2018-03-22T13:51:09.958Z,59.63
2018-03-22T13:53:37.581Z,67.50
2018-03-22T13:56:05.979Z,56.30
2018-03-22T13:58:34.368Z,58.17
2018-03-22T14:01:01.957Z,60.37
2018-03-22T14:03:30.250Z,60.37
2018-03-22T14:05:57.827Z,59.87
2018-03-22T14:08:25.407Z,71.77
2018-03-22T14:10:52.991Z,66.63
2018-03-22T14:13:20.575Z,67.37
2018-03-22T14:15:49.002Z,75.03
2018-03-22T14:18:16.604Z,63.77
2018-03-22T14:20:45.101Z,62.50
2018-03-22T14:23:12.811Z,64.17
2018-03-22T14:25:40.392Z,66.57
2018-03-22T14:28:08.875Z,65.87
2018-03-22T14:30:37.242Z,65.40
2018-03-22T14:33:04.898Z,69.40
2018-03-22T14:35:32.516Z,75.17
2018-03-22T14:38:00.895Z,72.40
2018-03-22T14:40:29.520Z,70.83
2018-03-22T14:42:57.134Z,77.83
2018-03-22T14:45:24.823Z,69.57
2018-03-22T14:47:52.443Z,60.83
2018-03-22T14:50:20.025Z,80.63
2018-03-22T14:52:47.602Z,65.90
2018-03-22T14:55:15.183Z,57.57
2018-03-22T14:57:42.765Z,62.00
2018-03-22T15:00:11.163Z,70.60
2018-03-22T15:02:38.736Z,67.27
2018-03-22T15:05:06.319Z,63.77
2018-03-22T15:07:34.727Z,65.37
2018-03-22T15:10:02.351Z,64.40
2018-03-22T15:12:29.931Z,76.93
2018-03-22T15:14:57.578Z,70.60
2018-03-22T15:17:25.156Z,67.53
2018-03-22T15:19:52.737Z,76.30
2018-03-22T15:22:21.136Z,69.83
2018-03-22T15:24:48.780Z,66.10
2018-03-22T15:27:16.358Z,65.33
2018-03-22T15:29:43.939Z,69.47
2018-03-22T15:32:11.702Z,68.30
2018-03-22T15:34:39.291Z,74.73
2018-03-22T15:37:06.910Z,77.73
2018-03-22T15:39:34.482Z,69.70
2018-03-22T15:42:02.128Z,66.93
2018-03-22T15:44:29.704Z,78.27
2018-03-22T15:46:57.293Z,59.97
2018-03-22T15:49:25.794Z,74.23
2018-03-22T15:51:53.379Z,58.90
2018-03-22T15:54:20.959Z,67.73
2018-03-22T15:56:48.539Z,67.47
2018-03-22T15:59:16.176Z,63.37
2018-03-22T16:01:43.756Z,62.10
2018-03-22T16:04:11.344Z,68.00
2018-03-22T16:06:38.927Z,63.23
2018-03-22T16:09:07.412Z,65.30
2018-03-22T16:11:34.987Z,60.93
2018-03-22T16:14:04.384Z,63.73
2018-03-22T16:16:31.967Z,70.80
2018-03-22T16:18:59.556Z,66.07
2018-03-22T16:21:27.331Z,63.50
2018-03-22T16:23:54.918Z,63.97
2018-03-22T16:26:22.499Z,60.77
2018-03-22T16:28:50.174Z,64.90
2018-03-22T16:31:17.761Z,66.03
2018-03-22T16:33:45.350Z,65.80
2018-03-22T16:36:13.039Z,69.47
2018-03-22T16:38:40.628Z,62.13
2018-03-22T16:41:08.213Z,60.07
2018-03-22T16:43:36.735Z,61.93
2018-03-22T16:46:05.251Z,58.80
2018-03-22T16:48:32.838Z,61.27
2018-03-22T16:51:00.427Z,63.40
2018-03-22T16:53:28.043Z,63.67
2018-03-22T16:55:55.622Z,65.90
2018-03-22T16:58:23.314Z,60.23
2018-03-22T17:00:50.904Z,68.70
2018-03-22T17:03:18.537Z,67.83
2018-03-22T17:05:49.900Z,77.50
2018-03-22T17:08:17.483Z,63.13
2018-03-22T17:10:45.063Z,65.23
2018-03-22T17:13:12.679Z,69.60
2018-03-22T17:15:40.260Z,65.13
2018-03-22T17:18:07.839Z,69.23
2018-03-22T17:20:36.048Z,67.33
2018-03-22T17:23:03.646Z,59.80
2018-03-22T17:25:32.259Z,60.37
2018-03-22T17:27:59.890Z,63.43
2018-03-22T17:30:28.565Z,64.80
2018-03-22T17:32:56.968Z,58.23
2018-03-22T17:35:24.663Z,60.80
2018-03-22T17:37:52.348Z,59.20
2018-03-22T17:40:20.637Z,55.13
2018-03-22T17:42:48.296Z,72.43
2018-03-22T17:45:15.890Z,70.50
2018-03-22T17:47:43.623Z,70.77
2018-03-22T17:50:11.204Z,59.93
2018-03-22T17:52:38.783Z,66.30
2018-03-22T17:55:06.367Z,57.43
2018-03-22T17:57:34.089Z,56.53
2018-03-22T18:00:25.354Z,58.10
2018-03-22T18:02:53.129Z,65.63
2018-03-22T18:05:20.749Z,61.03
2018-03-22T18:07:48.374Z,60.27
2018-03-22T18:10:16.854Z,62.37
2018-03-22T18:12:44.452Z,57.40
2018-03-22T18:15:12.151Z,62.40
2018-03-22T18:17:39.776Z,58.87
2018-03-22T18:20:07.400Z,63.63
2018-03-22T18:22:35.134Z,70.53
2018-03-22T18:25:02.715Z,64.47
2018-03-22T18:27:30.330Z,64.63
2018-03-22T18:29:57.947Z,63.87
2018-03-22T18:32:25.637Z,67.47
2018-03-22T18:34:53.347Z,69.53
2018-03-22T18:37:20.999Z,68.63
2018-03-22T18:39:48.645Z,62.60
2018-03-22T18:42:16.311Z,62.73
2018-03-22T18:44:43.936Z,58.00
2018-03-22T18:47:11.527Z,65.70
2018-03-22T18:49:39.108Z,68.57
2018-03-22T18:52:06.750Z,69.03
2018-03-22T18:54:34.502Z,62.77
2018-03-22T18:57:02.078Z,72.67
2018-03-22T18:59:29.746Z,67.90
2018-03-22T19:01:57.319Z,66.17
2018-03-22T19:04:24.931Z,64.07
2018-03-22T19:06:52.579Z,66.00
2018-03-22T19:09:20.191Z,66.50
2018-03-22T19:11:47.779Z,73.20
2018-03-22T19:14:15.407Z,72.83
2018-03-22T19:16:43.082Z,60.07
2018-03-22T19:19:10.807Z,71.10
2018-03-22T19:21:38.504Z,62.57
2018-03-22T19:24:06.118Z,75.10
2018-03-22T19:26:33.795Z,61.07
2018-03-22T19:29:01.431Z,60.70
2018-03-22T19:31:29.739Z,66.07
2018-03-22T19:33:57.330Z,77.07
2018-03-22T19:36:24.907Z,67.67
2018-03-22T19:38:52.487Z,79.50
2018-03-22T19:41:20.352Z,67.93
2018-03-22T19:43:47.987Z,65.90
2018-03-22T19:46:15.614Z,80.47
2018-03-22T19:48:43.196Z,84.03
2018-03-22T19:51:10.811Z,72.63
2018-03-22T19:53:39.194Z,65.17
2018-03-22T19:56:07.466Z,69.53
2018-03-22T19:58:35.076Z,62.13
2018-03-22T20:01:02.659Z,65.83
2018-03-22T20:03:30.251Z,63.70
2018-03-22T20:05:57.826Z,63.97
2018-03-22T20:08:26.418Z,64.90
2018-03-22T20:10:54.868Z,63.33
2018-03-22T20:13:23.306Z,72.80
2018-03-22T20:15:50.892Z,72.23
2018-03-22T20:18:18.507Z,72.13
2018-03-22T20:20:46.092Z,76.23
2018-03-22T20:23:13.676Z,76.80
2018-03-22T20:25:42.045Z,67.03
2018-03-22T20:28:10.453Z,76.10
2018-03-22T20:30:38.859Z,68.30
2018-03-22T20:33:06.435Z,63.77
2018-03-22T20:35:34.954Z,64.83
2018-03-22T20:38:03.420Z,65.50
2018-03-22T20:40:31.855Z,69.33
2018-03-22T20:42:59.435Z,58.50
2018-03-22T20:45:27.029Z,66.53
2018-03-22T20:47:54.627Z,72.60
2018-03-22T20:50:22.423Z,73.30
2018-03-22T20:52:50.560Z,76.03
2018-03-22T20:55:18.739Z,76.27
2018-03-22T20:57:47.091Z,71.03
2018-03-22T21:00:15.466Z,72.73
2018-03-22T21:02:43.292Z,72.37
2018-03-22T21:05:11.731Z,61.70
2018-03-22T21:07:40.235Z,84.83
2018-03-22T21:10:08.808Z,74.70
2018-03-22T21:12:36.427Z,70.80
2018-03-22T21:15:04.147Z,71.47
2018-03-22T21:17:32.468Z,77.60
2018-03-22T21:20:00.787Z,79.47
2018-03-22T21:22:28.374Z,80.43
2018-03-22T21:24:55.988Z,83.30
2018-03-22T21:27:23.611Z,72.47
2018-03-22T21:29:51.224Z,81.27
2018-03-22T21:32:18.800Z,90.27
2018-03-22T21:34:46.422Z,69.93
2018-03-22T21:37:14.092Z,77.07
2018-03-22T21:39:41.714Z,75.00
2018-03-22T21:42:10.090Z,83.37
2018-03-22T21:44:38.450Z,79.30
2018-03-22T21:47:17.933Z,73.03
2018-03-22T21:49:45.550Z,80.53
2018-03-22T21:52:25.132Z,83.70
2018-03-22T21:54:52.819Z,95.90
2018-03-22T21:57:20.410Z,83.73
2018-03-22T21:59:48.811Z,77.17
2018-03-22T22:02:16.435Z,87.47
2018-03-22T22:04:44.095Z,80.23
2018-03-22T22:07:11.669Z,83.73
2018-03-22T22:09:40.007Z,79.43
2018-03-22T22:12:07.802Z,97.70
2018-03-22T22:14:35.397Z,80.03
2018-03-22T22:17:03.022Z,92.30
2018-03-22T22:19:30.606Z,75.73
2018-03-22T22:21:58.288Z,81.07
2018-03-22T22:24:25.876Z,82.00
2018-03-22T22:26:53.519Z,86.63
2018-03-22T22:29:21.098Z,79.00
2018-03-22T22:31:48.716Z,73.23
2018-03-22T22:34:16.308Z,76.47
2018-03-22T22:36:43.922Z,66.80
2018-03-22T22:39:11.501Z,68.77
2018-03-22T22:41:39.115Z,66.03
2018-03-22T22:44:07.648Z,73.07
2018-03-22T22:46:35.381Z,66.73
2018-03-22T22:49:02.964Z,84.47
2018-03-22T22:51:30.547Z,68.80
2018-03-22T22:53:58.133Z,69.03
2018-03-22T22:56:25.711Z,73.47
2018-03-22T22:58:53.291Z,69.83
2018-03-22T23:01:20.865Z,68.40
2018-03-22T23:03:48.443Z,76.77
2018-03-22T23:06:16.024Z,74.87
2018-03-22T23:08:43.603Z,76.33
2018-03-22T23:11:11.191Z,77.10
2018-03-22T23:13:38.813Z,71.80
2018-03-22T23:16:06.406Z,72.27
2018-03-22T23:18:34.804Z,83.07
2018-03-22T23:21:02.406Z,63.20
2018-03-22T23:23:29.987Z,74.60
2018-03-22T23:25:58.464Z,81.47
2018-03-22T23:28:26.043Z,80.23
2018-03-22T23:30:53.894Z,83.20
2018-03-22T23:33:21.593Z,80.53
2018-03-22T23:35:49.177Z,93.93
2018-03-22T23:38:16.760Z,82.93
2018-03-22T23:40:44.339Z,80.77
2018-03-22T23:43:11.918Z,75.77
2018-03-22T23:45:39.506Z,74.10
2018-03-22T23:48:07.079Z,74.40
2018-03-22T23:50:34.663Z,71.67
2018-03-22T23:53:02.242Z,85.30
2018-03-22T23:55:29.823Z,73.90
2018-03-22T23:57:57.407Z,83.40
